createdAt,value
2022-08-26T00:01:55.679Z,16.40
2022-08-26T00:04:25.475Z,16.50
2022-08-26T00:06:56.660Z,16.50
2022-08-26T00:09:25.502Z,16.60
2022-08-26T00:11:54.071Z,16.70
2022-08-26T00:14:24.171Z,16.60
2022-08-26T00:16:55.630Z,16.50
2022-08-26T00:19:23.425Z,16.50
2022-08-26T00:21:51.311Z,16.50
2022-08-26T00:24:21.083Z,16.50
2022-08-26T00:26:49.124Z,16.50
2022-08-26T00:29:17.197Z,16.40
2022-08-26T00:31:45.389Z,16.40
2022-08-26T00:34:13.845Z,16.30
2022-08-26T00:36:41.052Z,16.30
2022-08-26T00:39:09.082Z,16.40
2022-08-26T00:41:38.223Z,16.30
2022-08-26T00:44:05.925Z,16.20
2022-08-26T00:46:37.244Z,16.20
2022-08-26T00:49:27.365Z,16.30
2022-08-26T00:51:58.910Z,16.10
2022-08-26T00:54:31.840Z,16.10
2022-08-26T00:57:02.706Z,16.20
2022-08-26T00:59:32.764Z,16.10
2022-08-26T01:02:02.864Z,16.10
2022-08-26T01:04:32.111Z,16.10
2022-08-26T01:06:59.982Z,16.00
2022-08-26T01:09:27.277Z,16.10
2022-08-26T01:11:58.219Z,16.00
2022-08-26T01:14:29.993Z,16.00
2022-08-26T01:16:57.100Z,16.00
2022-08-26T01:19:41.428Z,15.90
2022-08-26T01:22:28.846Z,15.90
2022-08-26T01:24:59.008Z,16.00
2022-08-26T01:27:32.404Z,15.90
2022-08-26T01:30:01.272Z,16.00
2022-08-26T01:32:31.574Z,16.00
2022-08-26T01:34:59.387Z,16.00
2022-08-26T01:37:35.763Z,15.90
2022-08-26T01:40:06.044Z,16.00
2022-08-26T01:42:34.407Z,16.00
2022-08-26T01:45:05.908Z,16.10
2022-08-26T01:47:35.110Z,16.10
2022-08-26T01:50:05.759Z,16.10
2022-08-26T01:52:35.823Z,16.10
2022-08-26T01:55:02.965Z,16.10
2022-08-26T01:57:30.773Z,16.00
2022-08-26T02:00:00.643Z,16.00
2022-08-26T02:02:28.151Z,16.10
2022-08-26T02:05:02.110Z,16.10
2022-08-26T02:07:29.807Z,16.20
2022-08-26T02:09:56.981Z,16.20
2022-08-26T02:12:26.046Z,16.10
2022-08-26T02:14:58.145Z,16.10
2022-08-26T02:17:34.146Z,16.20
2022-08-26T02:20:02.472Z,16.10
2022-08-26T02:22:31.467Z,16.10
2022-08-26T02:25:21.017Z,16.10
2022-08-26T02:27:48.494Z,16.00
2022-08-26T02:30:21.131Z,16.00
2022-08-26T02:32:49.601Z,16.00
2022-08-26T02:35:20.238Z,16.00
2022-08-26T02:37:49.501Z,16.00
2022-08-26T02:40:22.550Z,16.10
2022-08-26T02:42:49.924Z,16.00
2022-08-26T02:45:23.358Z,16.00
2022-08-26T02:47:52.364Z,15.90
2022-08-26T02:50:20.162Z,16.00
2022-08-26T02:52:48.547Z,16.00
2022-08-26T02:55:16.273Z,16.00
2022-08-26T02:57:43.459Z,16.00
2022-08-26T03:00:14.647Z,15.90
2022-08-26T03:02:41.644Z,15.80
2022-08-26T03:05:09.096Z,15.80
2022-08-26T03:07:36.133Z,15.80
2022-08-26T03:10:08.131Z,15.90
2022-08-26T03:12:36.340Z,15.80
2022-08-26T03:15:16.497Z,15.90
2022-08-26T03:17:49.189Z,15.80
2022-08-26T03:20:18.518Z,15.70
2022-08-26T03:22:45.687Z,15.70
2022-08-26T03:25:15.957Z,15.80
2022-08-26T03:27:43.197Z,15.80
2022-08-26T03:30:30.389Z,15.80
2022-08-26T03:32:57.690Z,15.80
2022-08-26T03:35:25.930Z,15.80
2022-08-26T03:37:53.346Z,15.80
2022-08-26T03:40:21.381Z,15.90
2022-08-26T03:42:49.526Z,15.90
2022-08-26T03:45:19.094Z,15.80
2022-08-26T03:47:47.292Z,15.80
2022-08-26T03:50:22.623Z,15.90
2022-08-26T03:52:51.809Z,15.90
2022-08-26T03:55:23.732Z,15.90
2022-08-26T03:57:51.299Z,15.90
2022-08-26T04:00:19.524Z,15.90
2022-08-26T04:02:48.911Z,15.90
2022-08-26T04:05:17.963Z,15.90
2022-08-26T04:07:45.842Z,15.90
2022-08-26T04:10:20.103Z,15.90
2022-08-26T04:12:47.860Z,15.80
2022-08-26T04:15:17.849Z,15.80
2022-08-26T04:17:45.148Z,15.90
2022-08-26T04:20:16.175Z,15.80
2022-08-26T04:22:43.611Z,15.80
2022-08-26T04:25:11.759Z,15.60
2022-08-26T04:27:39.070Z,15.50
2022-08-26T04:30:09.014Z,15.60
2022-08-26T04:32:37.092Z,15.60
2022-08-26T04:35:05.057Z,15.50
2022-08-26T04:37:33.636Z,15.60
2022-08-26T04:40:00.789Z,15.60
2022-08-26T04:42:29.538Z,15.70
2022-08-26T04:44:56.897Z,15.80
2022-08-26T04:47:27.134Z,15.90
2022-08-26T04:49:57.900Z,15.90
2022-08-26T04:52:25.165Z,15.90
2022-08-26T04:54:52.625Z,16.00
2022-08-26T04:57:19.767Z,16.10
2022-08-26T04:59:46.704Z,16.20
2022-08-26T05:02:16.515Z,16.20
2022-08-26T05:04:43.887Z,16.30
2022-08-26T05:07:11.944Z,16.40
2022-08-26T05:09:41.930Z,16.40
2022-08-26T05:12:09.842Z,16.50
2022-08-26T05:14:36.968Z,16.50
2022-08-26T05:17:04.037Z,16.70
2022-08-26T05:19:31.818Z,16.80
2022-08-26T05:21:59.798Z,16.80
2022-08-26T05:24:26.710Z,16.80
2022-08-26T05:26:54.574Z,16.90
2022-08-26T05:29:23.731Z,17.00
2022-08-26T05:31:52.417Z,17.20
2022-08-26T05:34:23.764Z,17.30
2022-08-26T05:36:57.547Z,17.30
2022-08-26T05:39:24.828Z,17.50
2022-08-26T05:41:51.815Z,17.50
2022-08-26T05:44:21.107Z,17.60
2022-08-26T05:46:51.319Z,17.80
2022-08-26T05:49:18.726Z,17.80
2022-08-26T05:51:47.974Z,18.00
2022-08-26T05:54:22.049Z,18.00
2022-08-26T05:56:52.603Z,18.20
2022-08-26T05:59:24.261Z,18.30
2022-08-26T06:01:52.950Z,18.50
2022-08-26T06:04:20.211Z,18.40
2022-08-26T06:06:47.421Z,18.40
2022-08-26T06:09:14.661Z,18.50
2022-08-26T06:11:44.764Z,18.70
2022-08-26T06:14:11.872Z,18.70
2022-08-26T06:16:40.996Z,18.70
2022-08-26T06:19:10.757Z,18.80
2022-08-26T06:21:39.440Z,18.90
2022-08-26T06:24:31.466Z,19.00
2022-08-26T06:27:05.788Z,18.80
2022-08-26T06:29:36.195Z,18.80
2022-08-26T06:32:05.662Z,19.00
2022-08-26T06:34:33.923Z,19.00
2022-08-26T06:37:06.399Z,19.00
2022-08-26T06:39:34.173Z,19.20
2022-08-26T06:42:03.269Z,20.40
2022-08-26T06:44:33.335Z,21.60
2022-08-26T06:47:01.977Z,21.70
2022-08-26T06:49:29.145Z,20.50
2022-08-26T06:51:59.891Z,20.40
2022-08-26T06:54:31.893Z,20.90
2022-08-26T06:57:00.091Z,21.20
2022-08-26T06:59:27.240Z,21.20
2022-08-26T07:01:55.082Z,21.40
2022-08-26T07:04:23.171Z,21.30
2022-08-26T07:06:53.343Z,20.80
2022-08-26T07:09:23.729Z,20.60
2022-08-26T07:11:51.811Z,20.40
2022-08-26T07:14:21.471Z,20.60
2022-08-26T07:16:50.648Z,20.80
2022-08-26T07:19:30.587Z,21.00
2022-08-26T07:22:03.405Z,21.10
2022-08-26T07:24:31.265Z,20.60
2022-08-26T07:27:05.374Z,20.20
2022-08-26T07:29:34.103Z,20.20
2022-08-26T07:32:01.236Z,21.10
2022-08-26T07:34:28.565Z,21.10
2022-08-26T07:36:57.168Z,20.30
2022-08-26T07:39:27.039Z,20.40
2022-08-26T07:41:54.425Z,20.60
2022-08-26T07:44:21.441Z,20.40
2022-08-26T07:46:53.074Z,20.50
2022-08-26T07:49:22.728Z,20.50
2022-08-26T07:51:50.883Z,20.70
2022-08-26T07:54:18.710Z,20.80
2022-08-26T07:56:46.319Z,21.60
2022-08-26T07:59:15.030Z,21.60
2022-08-26T08:01:45.094Z,21.50
2022-08-26T08:04:17.830Z,20.90
2022-08-26T08:06:45.687Z,21.50
2022-08-26T08:09:13.964Z,21.60
2022-08-26T08:11:44.996Z,21.00
2022-08-26T08:14:13.217Z,21.20
2022-08-26T08:16:45.993Z,21.70
2022-08-26T08:19:15.288Z,22.50
2022-08-26T08:21:43.601Z,22.90
2022-08-26T08:24:11.365Z,22.30
2022-08-26T08:26:39.343Z,21.80
2022-08-26T08:29:08.449Z,21.30
2022-08-26T08:31:56.887Z,21.10
2022-08-26T08:34:24.143Z,21.80
2022-08-26T08:36:54.175Z,21.70
2022-08-26T08:39:22.341Z,21.70
2022-08-26T08:41:49.767Z,21.70
2022-08-26T08:47:12.691Z,21.20
2022-08-26T08:49:39.836Z,21.30
2022-08-26T08:52:22.802Z,22.00
2022-08-26T08:54:55.538Z,21.90
2022-08-26T08:57:40.718Z,22.30
2022-08-26T09:00:18.242Z,22.50
2022-08-26T09:02:58.562Z,22.40
2022-08-26T09:05:35.190Z,22.80
2022-08-26T09:08:11.343Z,23.20
2022-08-26T09:10:40.335Z,23.70
2022-08-26T09:13:23.964Z,23.20
2022-08-26T09:16:09.998Z,23.20
2022-08-26T09:18:48.423Z,22.80
2022-08-26T09:21:17.997Z,23.20
2022-08-26T09:23:49.307Z,23.00
2022-08-26T09:26:42.593Z,23.40
2022-08-26T09:32:19.610Z,23.80
2022-08-26T09:34:55.660Z,23.40
2022-08-26T09:37:40.348Z,24.60
2022-08-26T09:40:30.932Z,25.30
2022-08-26T09:43:10.272Z,24.00
2022-08-26T09:45:39.065Z,23.70
2022-08-26T09:48:07.302Z,24.00
2022-08-26T09:50:40.963Z,23.00
2022-08-26T09:53:16.341Z,23.40
2022-08-26T09:55:49.557Z,23.30
2022-08-26T09:58:33.662Z,23.70
2022-08-26T10:01:03.841Z,24.10
2022-08-26T10:03:34.511Z,23.70
2022-08-26T10:06:21.134Z,23.90
2022-08-26T10:09:11.049Z,23.80
2022-08-26T10:11:51.939Z,23.70
2022-08-26T10:17:25.205Z,23.50
2022-08-26T10:19:58.597Z,23.70
2022-08-26T10:22:41.171Z,24.50
2022-08-26T10:25:14.470Z,24.10
2022-08-26T10:27:53.390Z,24.40
2022-08-26T10:30:24.363Z,22.90
2022-08-26T10:33:13.390Z,24.40
2022-08-26T10:35:57.040Z,23.20
2022-08-26T10:38:30.664Z,23.30
2022-08-26T10:41:09.969Z,23.50
2022-08-26T10:43:58.685Z,23.50
2022-08-26T10:46:29.296Z,23.00
2022-08-26T10:49:08.685Z,24.60
2022-08-26T10:51:45.672Z,23.60
2022-08-26T10:54:23.740Z,23.30
2022-08-26T10:57:01.529Z,23.60
2022-08-26T10:59:31.905Z,24.10
2022-08-26T11:02:11.866Z,23.70
2022-08-26T11:04:49.334Z,23.30
2022-08-26T11:07:36.862Z,22.80
2022-08-26T11:10:19.223Z,23.40
2022-08-26T11:12:57.433Z,24.10
2022-08-26T11:15:25.169Z,24.70
2022-08-26T11:17:52.076Z,24.70
2022-08-26T11:20:42.173Z,24.40
2022-08-26T11:23:23.870Z,23.80
2022-08-26T11:25:57.543Z,23.90
2022-08-26T11:28:36.729Z,24.50
2022-08-26T11:31:08.021Z,23.70
2022-08-26T11:33:48.155Z,24.50
2022-08-26T11:36:40.689Z,23.90
2022-08-26T11:39:24.101Z,23.90
2022-08-26T11:41:54.102Z,23.50
2022-08-26T11:44:24.208Z,23.50
2022-08-26T11:47:03.308Z,23.60
2022-08-26T11:49:33.434Z,24.10
2022-08-26T11:52:22.873Z,23.40
2022-08-26T11:55:12.152Z,23.00
2022-08-26T11:57:53.072Z,22.80
2022-08-26T12:00:31.388Z,23.30
2022-08-26T12:03:05.903Z,23.60
2022-08-26T12:05:36.851Z,23.70
2022-08-26T12:08:11.777Z,23.80
2022-08-26T12:10:39.852Z,23.40
2022-08-26T12:13:08.066Z,23.60
2022-08-26T12:15:36.424Z,23.70
2022-08-26T12:18:28.769Z,24.00
2022-08-26T12:20:57.115Z,23.60
2022-08-26T12:23:41.796Z,24.20
2022-08-26T12:26:19.759Z,23.70
2022-08-26T12:29:19.876Z,23.90
2022-08-26T12:31:48.413Z,24.20
2022-08-26T12:34:17.924Z,24.10
2022-08-26T12:36:48.682Z,24.70
2022-08-26T12:39:33.475Z,25.00
2022-08-26T12:42:08.005Z,24.60
2022-08-26T12:45:03.782Z,25.20
2022-08-26T12:47:43.601Z,26.20
2022-08-26T12:50:21.305Z,26.00
2022-08-26T12:53:03.227Z,26.00
2022-08-26T12:55:33.681Z,25.70
2022-08-26T12:58:16.044Z,24.90
2022-08-26T13:00:48.697Z,24.90
2022-08-26T13:03:29.919Z,25.10
2022-08-26T13:06:16.526Z,24.40
2022-08-26T13:08:55.560Z,24.50
2022-08-26T13:11:40.997Z,25.30
2022-08-26T13:14:11.682Z,25.50
2022-08-26T13:16:44.124Z,25.50
2022-08-26T13:19:17.327Z,25.40
2022-08-26T13:21:56.074Z,25.00
2022-08-26T13:24:30.167Z,24.30
2022-08-26T13:26:57.581Z,23.80
2022-08-26T13:29:24.954Z,24.10
2022-08-26T13:31:53.067Z,24.50
2022-08-26T13:34:22.422Z,25.20
2022-08-26T13:36:51.921Z,25.20
2022-08-26T13:39:19.670Z,23.70
2022-08-26T13:41:47.450Z,24.40
2022-08-26T13:44:14.641Z,24.90
2022-08-26T13:46:42.675Z,24.70
2022-08-26T13:49:11.240Z,24.50
2022-08-26T13:51:39.307Z,23.90
2022-08-26T13:54:06.988Z,23.90
2022-08-26T13:56:34.922Z,24.50
2022-08-26T13:59:03.101Z,23.90
2022-08-26T14:01:32.080Z,23.80
2022-08-26T14:03:59.432Z,23.80
2022-08-26T14:06:26.623Z,24.40
2022-08-26T14:08:53.901Z,24.40
2022-08-26T14:11:21.734Z,23.90
2022-08-26T14:13:48.900Z,23.40
2022-08-26T14:16:27.592Z,23.30
2022-08-26T14:18:54.847Z,23.30
2022-08-26T14:21:23.735Z,23.30
2022-08-26T14:23:52.085Z,23.00
2022-08-26T14:26:28.998Z,22.70
2022-08-26T14:29:00.451Z,22.70
2022-08-26T14:31:29.926Z,22.70
2022-08-26T14:34:00.108Z,22.50
2022-08-26T14:36:33.568Z,22.50
2022-08-26T14:39:08.434Z,22.80
2022-08-26T14:41:41.225Z,22.70
2022-08-26T14:44:14.411Z,23.00
2022-08-26T14:46:51.409Z,22.60
2022-08-26T14:49:20.400Z,23.10
2022-08-26T14:51:47.736Z,22.80
2022-08-26T14:54:16.630Z,22.70
2022-08-26T14:56:56.145Z,23.10
2022-08-26T14:59:30.157Z,22.60
2022-08-26T15:01:59.104Z,22.50
2022-08-26T15:04:26.882Z,22.70
2022-08-26T15:06:55.496Z,22.60
2022-08-26T15:09:23.673Z,22.70
2022-08-26T15:11:51.316Z,22.60
2022-08-26T15:14:20.089Z,22.50
2022-08-26T15:16:57.181Z,22.20
2022-08-26T15:19:27.952Z,22.30
2022-08-26T15:21:55.166Z,22.50
2022-08-26T15:24:24.279Z,22.30
2022-08-26T15:26:52.432Z,22.20
2022-08-26T15:29:19.975Z,22.20
2022-08-26T15:31:47.863Z,22.00
2022-08-26T15:34:17.199Z,21.60
2022-08-26T15:36:46.467Z,21.70
2022-08-26T15:39:14.946Z,21.50
2022-08-26T15:41:42.064Z,21.70
2022-08-26T15:44:10.785Z,21.90
2022-08-26T15:46:38.659Z,21.60
2022-08-26T15:49:06.465Z,21.60
2022-08-26T15:51:45.649Z,21.70
2022-08-26T15:54:14.104Z,21.60
2022-08-26T15:56:41.184Z,21.50
2022-08-26T15:59:11.642Z,21.60
2022-08-26T16:01:39.033Z,21.30
2022-08-26T16:04:06.588Z,21.20
2022-08-26T16:06:36.921Z,20.90
2022-08-26T16:09:04.542Z,21.10
2022-08-26T16:11:31.801Z,21.10
2022-08-26T16:13:58.779Z,21.20
2022-08-26T16:16:26.749Z,21.10
2022-08-26T16:18:54.798Z,21.10
2022-08-26T16:21:25.445Z,21.20
2022-08-26T16:23:52.588Z,21.00
2022-08-26T16:26:22.807Z,21.00
2022-08-26T16:28:49.916Z,20.80
2022-08-26T16:31:17.638Z,20.90
2022-08-26T16:33:44.733Z,21.00
2022-08-26T16:36:12.052Z,20.90
2022-08-26T16:38:40.749Z,20.70
2022-08-26T16:41:08.520Z,20.80
2022-08-26T16:43:36.030Z,20.80
2022-08-26T16:46:06.674Z,20.70
2022-08-26T16:48:34.182Z,20.60
2022-08-26T16:51:01.146Z,20.70
2022-08-26T16:53:28.163Z,20.70
2022-08-26T16:55:55.469Z,20.50
2022-08-26T16:58:22.508Z,20.40
2022-08-26T17:00:49.957Z,20.40
2022-08-26T17:03:17.218Z,20.40
2022-08-26T17:05:44.624Z,20.40
2022-08-26T17:08:14.538Z,20.40
2022-08-26T17:10:51.721Z,20.30
2022-08-26T17:13:34.863Z,20.30
2022-08-26T17:16:04.978Z,20.20
2022-08-26T17:18:32.909Z,20.10
2022-08-26T17:21:06.174Z,20.10
2022-08-26T17:23:33.376Z,20.00
2022-08-26T17:26:00.306Z,20.00
2022-08-26T17:28:27.475Z,19.90
2022-08-26T17:30:57.505Z,19.90
2022-08-26T17:33:25.410Z,20.00
2022-08-26T17:35:53.219Z,20.00
2022-08-26T17:38:21.491Z,20.00
2022-08-26T17:40:49.663Z,19.90
2022-08-26T17:43:17.368Z,19.70
2022-08-26T17:45:44.597Z,19.70
2022-08-26T17:48:12.111Z,19.80
2022-08-26T17:50:41.642Z,19.70
2022-08-26T17:53:12.597Z,19.60
2022-08-26T17:55:50.015Z,19.70
2022-08-26T17:58:20.076Z,19.60
2022-08-26T18:00:49.754Z,19.70
2022-08-26T18:03:18.571Z,19.60
2022-08-26T18:05:51.340Z,19.60
2022-08-26T18:08:18.763Z,19.50
2022-08-26T18:10:45.920Z,19.60
2022-08-26T18:13:15.155Z,19.60
2022-08-26T18:15:45.398Z,19.50
2022-08-26T18:18:15.876Z,19.60
2022-08-26T18:20:44.844Z,19.60
2022-08-26T18:23:13.084Z,19.50
2022-08-26T18:25:41.846Z,19.40
2022-08-26T18:28:08.983Z,19.40
2022-08-26T18:30:35.983Z,19.30
2022-08-26T18:33:03.401Z,19.40
2022-08-26T18:35:30.478Z,19.40
2022-08-26T18:37:58.243Z,19.50
2022-08-26T18:40:28.674Z,19.40
2022-08-26T18:42:55.595Z,19.30
2022-08-26T18:45:22.599Z,19.30
2022-08-26T18:47:49.806Z,19.20
2022-08-26T18:50:17.367Z,19.20
2022-08-26T18:52:44.413Z,19.30
2022-08-26T18:55:11.627Z,19.20
2022-08-26T18:57:38.557Z,19.10
2022-08-26T19:00:06.959Z,19.30
2022-08-26T19:02:34.584Z,19.30
2022-08-26T19:05:01.838Z,19.20
2022-08-26T19:07:28.822Z,19.20
2022-08-26T19:09:55.853Z,19.20
2022-08-26T19:12:23.501Z,19.20
2022-08-26T19:14:54.133Z,19.20
2022-08-26T19:17:22.667Z,19.20
2022-08-26T19:19:49.968Z,19.00
2022-08-26T19:22:17.044Z,19.00
2022-08-26T19:24:44.042Z,19.00
2022-08-26T19:27:14.731Z,19.00
2022-08-26T19:29:42.864Z,19.00
2022-08-26T19:32:09.943Z,18.90
2022-08-26T19:34:36.942Z,18.90
2022-08-26T19:37:04.649Z,18.90
2022-08-26T19:39:31.748Z,19.00
2022-08-26T19:41:59.336Z,19.00
2022-08-26T19:44:45.083Z,19.00
2022-08-26T19:47:12.990Z,19.10
2022-08-26T19:49:39.929Z,19.00
2022-08-26T19:52:08.447Z,19.00
2022-08-26T19:54:36.224Z,18.80
2022-08-26T19:57:03.810Z,18.90
2022-08-26T19:59:33.134Z,19.00
2022-08-26T20:02:01.502Z,19.00
2022-08-26T20:04:32.669Z,19.00
2022-08-26T20:07:01.371Z,19.00
2022-08-26T20:09:33.009Z,19.00
2022-08-26T20:12:00.607Z,18.90
2022-08-26T20:14:30.001Z,18.90
2022-08-26T20:16:57.413Z,18.90
2022-08-26T20:19:43.082Z,18.90
2022-08-26T20:22:10.367Z,18.80
2022-08-26T20:24:37.299Z,18.90
2022-08-26T20:27:07.737Z,18.80
2022-08-26T20:29:36.464Z,18.80
2022-08-26T20:32:05.991Z,18.60
2022-08-26T20:34:33.997Z,18.70
2022-08-26T20:37:01.757Z,18.70
2022-08-26T20:39:29.780Z,18.70
2022-08-26T20:41:57.886Z,18.70
2022-08-26T20:44:25.856Z,18.70
2022-08-26T20:46:53.142Z,18.70
2022-08-26T20:49:20.073Z,18.70
2022-08-26T20:51:52.536Z,18.80
2022-08-26T20:54:24.019Z,18.70
2022-08-26T20:56:56.644Z,18.80
2022-08-26T20:59:23.690Z,18.70
2022-08-26T21:01:50.621Z,18.80
2022-08-26T21:04:20.940Z,18.80
2022-08-26T21:06:52.396Z,18.90
2022-08-26T21:09:21.612Z,18.90
2022-08-26T21:11:48.636Z,18.90
2022-08-26T21:14:16.854Z,18.80
2022-08-26T21:16:45.904Z,18.80
2022-08-26T21:19:18.125Z,18.80
2022-08-26T21:21:46.838Z,18.70
2022-08-26T21:24:14.348Z,18.70
2022-08-26T21:26:41.810Z,18.70
2022-08-26T21:29:09.996Z,18.70
2022-08-26T21:31:42.292Z,18.70
2022-08-26T21:34:13.097Z,18.80
2022-08-26T21:36:40.086Z,18.70
2022-08-26T21:39:11.289Z,18.70
2022-08-26T21:41:39.776Z,18.80
2022-08-26T21:44:06.792Z,18.70
2022-08-26T21:46:36.387Z,18.60
2022-08-26T21:49:07.499Z,18.60
2022-08-26T21:51:41.375Z,18.60
2022-08-26T21:54:11.273Z,18.70
2022-08-26T21:56:44.295Z,18.70
2022-08-26T21:59:11.912Z,18.70
2022-08-26T22:01:38.958Z,18.70
2022-08-26T22:04:09.280Z,18.70
2022-08-26T22:06:42.225Z,18.80
2022-08-26T22:09:09.491Z,18.80
2022-08-26T22:11:36.846Z,18.80
2022-08-26T22:14:03.877Z,18.80
2022-08-26T22:16:30.886Z,18.90
2022-08-26T22:18:57.924Z,18.90
2022-08-26T22:21:28.228Z,18.90
2022-08-26T22:23:58.261Z,19.00
2022-08-26T22:26:28.073Z,19.00
2022-08-26T22:28:59.165Z,19.00
2022-08-26T22:31:37.129Z,19.00
2022-08-26T22:34:07.695Z,19.00
2022-08-26T22:36:34.954Z,19.00
2022-08-26T22:39:02.372Z,19.20
2022-08-26T22:41:29.400Z,19.20
2022-08-26T22:44:02.739Z,19.20
2022-08-26T22:46:30.254Z,19.20
2022-08-26T22:48:57.203Z,19.20
2022-08-26T22:51:24.200Z,19.20
2022-08-26T22:53:51.130Z,19.30
2022-08-26T22:56:19.154Z,19.30
2022-08-26T22:58:46.137Z,19.30
2022-08-26T23:01:14.173Z,19.40
2022-08-26T23:03:41.345Z,19.30
2022-08-26T23:06:12.234Z,19.40
2022-08-26T23:08:41.940Z,19.30
2022-08-26T23:11:10.575Z,19.30
2022-08-26T23:13:38.025Z,19.30
2022-08-26T23:16:09.124Z,19.40
2022-08-26T23:18:36.588Z,19.40
2022-08-26T23:21:03.609Z,19.40
2022-08-26T23:23:31.208Z,19.40
2022-08-26T23:25:58.597Z,19.40
2022-08-26T23:28:26.552Z,19.40
2022-08-26T23:30:54.047Z,19.30
2022-08-26T23:33:21.176Z,19.40
2022-08-26T23:35:48.345Z,19.40
2022-08-26T23:38:16.662Z,19.40
2022-08-26T23:40:43.621Z,19.40
2022-08-26T23:43:11.653Z,19.40
2022-08-26T23:45:38.743Z,19.40
2022-08-26T23:48:06.372Z,19.40
2022-08-26T23:50:56.531Z,19.40
2022-08-26T23:53:23.597Z,19.40
2022-08-26T23:55:52.429Z,19.40
2022-08-26T23:58:21.273Z,19.40
